createdAt,value
2023-01-25T00:00:53.985Z,99434.00
2023-01-25T00:03:23.217Z,99423.00
2023-01-25T00:06:02.452Z,99433.00
2023-01-25T00:08:31.711Z,99438.00
2023-01-25T00:11:00.876Z,99444.00
2023-01-25T00:13:29.940Z,99444.00
2023-01-25T00:16:06.720Z,99449.00
2023-01-25T00:18:35.881Z,99454.00
2023-01-25T00:21:35.242Z,99459.00
2023-01-25T00:24:05.925Z,99468.00
2023-01-25T00:26:36.796Z,99468.00
2023-01-25T00:29:06.644Z,99467.00
2023-01-25T00:31:35.877Z,99474.00
2023-01-25T00:34:26.375Z,99467.00
2023-01-25T00:37:19.570Z,99482.00
2023-01-25T00:39:49.074Z,99487.00
2023-01-25T00:42:20.556Z,99491.00
2023-01-25T00:44:50.935Z,99491.00
2023-01-25T00:47:20.272Z,99489.00
2023-01-25T00:49:49.564Z,99480.00
2023-01-25T00:52:19.176Z,99498.00
2023-01-25T00:54:48.290Z,99499.00
2023-01-25T00:57:17.397Z,99507.00
2023-01-25T00:59:48.414Z,99501.00
2023-01-25T01:02:17.560Z,99511.00
2023-01-25T01:04:46.997Z,99502.00
2023-01-25T01:07:17.079Z,99508.00
2023-01-25T01:09:46.237Z,99508.00
2023-01-25T01:12:15.439Z,99510.00
2023-01-25T01:14:44.522Z,99500.00
2023-01-25T01:17:14.149Z,99510.00
2023-01-25T01:19:43.376Z,99520.00
2023-01-25T01:22:13.069Z,99519.00
2023-01-25T01:24:43.312Z,99517.00
2023-01-25T01:27:12.465Z,99520.00
2023-01-25T01:29:41.675Z,99519.00
2023-01-25T01:32:10.952Z,99524.00
2023-01-25T01:34:40.136Z,99522.00
2023-01-25T01:37:09.313Z,99528.00
2023-01-25T01:39:38.470Z,99525.00
2023-01-25T01:42:07.596Z,99537.00
2023-01-25T01:44:54.432Z,99532.00
2023-01-25T01:47:46.796Z,99531.00
2023-01-25T01:50:25.822Z,99533.00
2023-01-25T01:52:54.975Z,99533.00
2023-01-25T01:55:26.250Z,99525.00
2023-01-25T01:58:00.716Z,99525.00
2023-01-25T02:00:38.320Z,99528.00
2023-01-25T02:03:08.084Z,99537.00
2023-01-25T02:05:58.726Z,99533.00
2023-01-25T02:08:31.868Z,99536.00
2023-01-25T02:11:03.158Z,99538.00
2023-01-25T02:13:33.572Z,99543.00
2023-01-25T02:16:03.513Z,99541.00
2023-01-25T02:18:35.102Z,99549.00
2023-01-25T02:21:04.371Z,99550.00
2023-01-25T02:23:42.017Z,99550.00
2023-01-25T02:26:12.502Z,99551.00
2023-01-25T02:29:17.950Z,99563.00
2023-01-25T02:31:50.557Z,99562.00
2023-01-25T02:34:20.505Z,99560.00
2023-01-25T02:36:52.573Z,99560.00
2023-01-25T02:39:22.292Z,99552.00
2023-01-25T02:41:51.512Z,99562.00
2023-01-25T02:44:27.379Z,99557.00
2023-01-25T02:46:57.320Z,99556.00
2023-01-25T02:49:26.849Z,99549.00
2023-01-25T02:52:01.204Z,99552.00
2023-01-25T02:54:30.490Z,99552.00
2023-01-25T02:57:00.159Z,99552.00
2023-01-25T02:59:29.498Z,99550.00
2023-01-25T03:01:58.973Z,99548.00
2023-01-25T03:04:28.373Z,99553.00
2023-01-25T03:06:57.780Z,99542.00
2023-01-25T03:09:26.996Z,99533.00
2023-01-25T03:11:56.207Z,99537.00
2023-01-25T03:14:25.417Z,99536.00
2023-01-25T03:16:54.867Z,99527.00
2023-01-25T03:19:24.096Z,99520.00
2023-01-25T03:21:53.320Z,99521.00
2023-01-25T03:24:22.614Z,99527.00
2023-01-25T03:27:10.051Z,99521.00
2023-01-25T03:29:40.029Z,99515.00
2023-01-25T03:32:10.042Z,99525.00
2023-01-25T03:34:39.427Z,99521.00
2023-01-25T03:37:08.680Z,99519.00
2023-01-25T03:39:38.052Z,99509.00
2023-01-25T03:42:07.467Z,99516.00
2023-01-25T03:44:36.694Z,99514.00
2023-01-25T03:47:06.095Z,99514.00
2023-01-25T03:49:35.382Z,99511.00
2023-01-25T03:52:04.761Z,99495.00
2023-01-25T03:54:34.156Z,99487.00
2023-01-25T03:57:03.379Z,99493.00
2023-01-25T03:59:32.559Z,99489.00
2023-01-25T04:02:01.897Z,99475.00
2023-01-25T04:04:31.251Z,99475.00
2023-01-25T04:07:00.468Z,99465.00
2023-01-25T04:09:29.765Z,99462.00
2023-01-25T04:11:58.965Z,99457.00
2023-01-25T04:14:43.288Z,99459.00
2023-01-25T04:17:14.006Z,99454.00
2023-01-25T04:19:43.263Z,99437.00
2023-01-25T04:22:13.841Z,99431.00
2023-01-25T04:24:43.253Z,99425.00
2023-01-25T04:27:12.863Z,99424.00
2023-01-25T04:29:42.237Z,99421.00
2023-01-25T04:32:11.773Z,99417.00
2023-01-25T04:34:41.201Z,99407.00
2023-01-25T04:37:10.348Z,99398.00
2023-01-25T04:39:39.603Z,99394.00
2023-01-25T04:42:08.823Z,99392.00
2023-01-25T04:44:38.039Z,99384.00
2023-01-25T04:47:07.269Z,99373.00
2023-01-25T04:49:36.485Z,99371.00
2023-01-25T04:52:06.090Z,99368.00
2023-01-25T04:54:35.295Z,99356.00
2023-01-25T04:57:04.869Z,99352.00
2023-01-25T04:59:34.271Z,99344.00
2023-01-25T05:02:03.565Z,99332.00
2023-01-25T05:04:32.823Z,99325.00
2023-01-25T05:07:02.158Z,99325.00
2023-01-25T05:09:31.754Z,99318.00
2023-01-25T05:12:01.079Z,99320.00
2023-01-25T05:14:30.406Z,99311.00
2023-01-25T05:16:59.741Z,99304.00
2023-01-25T05:19:30.072Z,99293.00
2023-01-25T05:21:59.284Z,99290.00
2023-01-25T05:24:35.223Z,99282.00
2023-01-25T05:27:05.698Z,99272.00
2023-01-25T05:29:41.507Z,99263.00
2023-01-25T05:32:23.902Z,99253.00
2023-01-25T05:34:53.615Z,99253.00
2023-01-25T05:37:23.747Z,99250.00
2023-01-25T05:39:52.935Z,99248.00
2023-01-25T05:42:22.398Z,99245.00
2023-01-25T05:44:51.768Z,99237.00
2023-01-25T05:47:22.055Z,99224.00
2023-01-25T05:49:51.252Z,99212.00
2023-01-25T05:52:20.450Z,99206.00
2023-01-25T05:54:51.012Z,99207.00
2023-01-25T05:57:20.198Z,99198.00
2023-01-25T05:59:49.520Z,99184.00
2023-01-25T06:02:18.857Z,99175.00
2023-01-25T06:04:48.175Z,99177.00
2023-01-25T06:07:17.496Z,99173.00
2023-01-25T06:09:46.724Z,99169.00
2023-01-25T06:12:17.128Z,99164.00
2023-01-25T06:14:48.244Z,99155.00
2023-01-25T06:17:17.804Z,99156.00
2023-01-25T06:19:48.241Z,99147.00
2023-01-25T06:22:17.521Z,99141.00
2023-01-25T06:24:46.756Z,99132.00
2023-01-25T06:27:16.108Z,99134.00
2023-01-25T06:29:45.385Z,99125.00
2023-01-25T06:32:14.673Z,99120.00
2023-01-25T06:34:43.910Z,99112.00
2023-01-25T06:37:13.202Z,99100.00
2023-01-25T06:39:42.393Z,99101.00
2023-01-25T06:42:11.789Z,99090.00
2023-01-25T06:44:41.043Z,99084.00
2023-01-25T06:47:13.685Z,99083.00
2023-01-25T06:49:43.093Z,99078.00
2023-01-25T06:52:12.354Z,99066.00
2023-01-25T06:54:42.163Z,99064.00
2023-01-25T06:57:13.059Z,99063.00
2023-01-25T06:59:42.273Z,99060.00
2023-01-25T07:02:17.558Z,99054.00
2023-01-25T07:04:46.711Z,99052.00
2023-01-25T07:07:16.064Z,99043.00
2023-01-25T07:09:45.383Z,99050.00
2023-01-25T07:12:14.574Z,99039.00
2023-01-25T07:14:43.808Z,99041.00
2023-01-25T07:17:13.018Z,99021.00
2023-01-25T07:19:42.178Z,99024.00
2023-01-25T07:22:11.462Z,99017.00
2023-01-25T07:24:40.680Z,99006.00
2023-01-25T07:27:09.977Z,99001.00
2023-01-25T07:29:39.188Z,98997.00
2023-01-25T07:32:08.427Z,98994.00
2023-01-25T07:34:37.678Z,98990.00
2023-01-25T07:37:07.098Z,98988.00
2023-01-25T07:39:36.966Z,98985.00
2023-01-25T07:42:06.531Z,98981.00
2023-01-25T07:44:35.784Z,98978.00
2023-01-25T07:47:05.232Z,98981.00
2023-01-25T07:49:34.673Z,98967.00
2023-01-25T07:52:03.955Z,98968.00
2023-01-25T07:54:33.280Z,98969.00
2023-01-25T07:57:02.473Z,98962.00
2023-01-25T07:59:33.017Z,98968.00
2023-01-25T08:02:02.231Z,98960.00
2023-01-25T08:04:31.540Z,98957.00
2023-01-25T08:07:00.724Z,98956.00
2023-01-25T08:09:29.965Z,98947.00
2023-01-25T08:11:59.275Z,98947.00
2023-01-25T08:14:28.518Z,98942.00
2023-01-25T08:16:58.225Z,98939.00
2023-01-25T08:19:27.753Z,98933.00
2023-01-25T08:21:56.948Z,98932.00
2023-01-25T08:24:26.196Z,98930.00
2023-01-25T08:26:55.532Z,98921.00
2023-01-25T08:29:25.122Z,98929.00
2023-01-25T08:31:54.312Z,98923.00
2023-01-25T08:34:23.679Z,98923.00
2023-01-25T08:36:52.957Z,98931.00
2023-01-25T08:39:22.218Z,98927.00
2023-01-25T08:41:51.422Z,98925.00
2023-01-25T08:44:25.075Z,98931.00
2023-01-25T08:46:54.797Z,98930.00
2023-01-25T08:49:24.141Z,98929.00
2023-01-25T08:51:53.893Z,98928.00
2023-01-25T08:54:23.324Z,98929.00
2023-01-25T08:56:52.982Z,98925.00
2023-01-25T08:59:22.175Z,98926.00
2023-01-25T09:01:51.530Z,98924.00
2023-01-25T09:04:20.943Z,98925.00
2023-01-25T09:06:50.124Z,98922.00
2023-01-25T09:09:19.434Z,98921.00
2023-01-25T09:11:48.628Z,98931.00
2023-01-25T09:14:17.875Z,98926.00
2023-01-25T09:16:47.681Z,98926.00
2023-01-25T09:19:16.977Z,98923.00
2023-01-25T09:21:46.170Z,98928.00
2023-01-25T09:24:15.715Z,98926.00
2023-01-25T09:26:55.941Z,98926.00
2023-01-25T09:29:28.789Z,98927.00
2023-01-25T09:31:57.936Z,98922.00
2023-01-25T09:34:27.075Z,98931.00
2023-01-25T09:36:56.183Z,98931.00
2023-01-25T09:39:25.396Z,98928.00
2023-01-25T09:42:41.922Z,98934.00
2023-01-25T09:45:35.126Z,98937.00
2023-01-25T09:48:35.594Z,98928.00
2023-01-25T09:51:16.530Z,98934.00
2023-01-25T09:53:53.599Z,98933.00
2023-01-25T09:56:33.923Z,98938.00
2023-01-25T09:59:17.145Z,98939.00
2023-01-25T10:02:18.636Z,98941.00
2023-01-25T10:04:52.847Z,98952.00
2023-01-25T10:07:26.474Z,98949.00
2023-01-25T10:10:34.132Z,98953.00
2023-01-25T10:13:06.874Z,98955.00
2023-01-25T10:15:49.270Z,98961.00
2023-01-25T10:18:24.602Z,98964.00
2023-01-25T10:20:59.696Z,98962.00
2023-01-25T10:23:47.246Z,98966.00
2023-01-25T10:26:34.110Z,98972.00
2023-01-25T10:29:14.895Z,98977.00
2023-01-25T10:31:51.957Z,98973.00
2023-01-25T10:34:57.064Z,98976.00
2023-01-25T10:37:33.970Z,98981.00
2023-01-25T10:40:24.784Z,98979.00
2023-01-25T10:43:07.938Z,98980.00
2023-01-25T10:45:37.086Z,98974.00
2023-01-25T10:48:13.623Z,98977.00
2023-01-25T10:50:48.741Z,98984.00
2023-01-25T10:53:35.259Z,98988.00
2023-01-25T10:56:22.414Z,98991.00
2023-01-25T10:59:06.418Z,98989.00
2023-01-25T11:01:38.479Z,98997.00
2023-01-25T11:04:29.928Z,98997.00
2023-01-25T11:07:00.264Z,98997.00
2023-01-25T11:09:38.988Z,98999.00
2023-01-25T11:12:23.139Z,99006.00
2023-01-25T11:14:52.830Z,99004.00
2023-01-25T11:17:32.967Z,99009.00
2023-01-25T11:20:22.095Z,99009.00
2023-01-25T11:22:58.519Z,99015.00
2023-01-25T11:25:34.866Z,99017.00
2023-01-25T11:28:27.129Z,99027.00
2023-01-25T11:30:56.245Z,99029.00
2023-01-25T11:33:27.981Z,99022.00
2023-01-25T11:36:32.545Z,99027.00
2023-01-25T11:39:13.283Z,99032.00
2023-01-25T11:42:23.307Z,99034.00
2023-01-25T11:44:55.340Z,99036.00
2023-01-25T11:48:07.337Z,99036.00
2023-01-25T11:51:14.986Z,99039.00
2023-01-25T11:54:31.341Z,99042.00
2023-01-25T11:57:11.218Z,99056.00
2023-01-25T12:00:24.995Z,99044.00
2023-01-25T12:03:35.324Z,99051.00
2023-01-25T12:06:55.632Z,99056.00
2023-01-25T12:09:35.174Z,99060.00
2023-01-25T12:12:35.270Z,99068.00
2023-01-25T12:15:27.070Z,99070.00
2023-01-25T12:18:16.701Z,99081.00
2023-01-25T12:21:08.350Z,99086.00
2023-01-25T12:24:00.651Z,99092.00
2023-01-25T12:26:51.006Z,99086.00
2023-01-25T12:29:47.628Z,99096.00
2023-01-25T12:32:26.172Z,99092.00
2023-01-25T12:35:38.914Z,99102.00
2023-01-25T12:39:07.339Z,99095.00
2023-01-25T12:42:17.340Z,99103.00
2023-01-25T12:45:11.788Z,99105.00
2023-01-25T12:48:05.702Z,99105.00
2023-01-25T12:50:58.050Z,99114.00
2023-01-25T12:53:43.519Z,99114.00
2023-01-25T12:56:47.338Z,99123.00
2023-01-25T12:59:55.639Z,99117.00
2023-01-25T13:02:51.933Z,99128.00
2023-01-25T13:05:38.767Z,99130.00
2023-01-25T13:08:39.445Z,99134.00
2023-01-25T13:11:28.754Z,99129.00
2023-01-25T13:14:17.750Z,99129.00
2023-01-25T13:17:09.375Z,99134.00
2023-01-25T13:19:44.643Z,99137.00
2023-01-25T13:22:17.400Z,99135.00
2023-01-25T13:25:07.709Z,99140.00
2023-01-25T13:27:37.673Z,99137.00
2023-01-25T13:30:35.658Z,99144.00
2023-01-25T13:33:08.252Z,99143.00
2023-01-25T13:35:43.686Z,99144.00
2023-01-25T13:38:34.668Z,99141.00
2023-01-25T13:41:17.742Z,99142.00
2023-01-25T13:43:53.455Z,99145.00
2023-01-25T13:46:27.504Z,99150.00
2023-01-25T13:49:05.142Z,99147.00
2023-01-25T13:51:40.337Z,99145.00
2023-01-25T13:54:18.211Z,99147.00
2023-01-25T13:56:47.759Z,99145.00
2023-01-25T13:59:28.651Z,99147.00
2023-01-25T14:02:00.612Z,99142.00
2023-01-25T14:04:34.349Z,99144.00
2023-01-25T14:07:10.909Z,99144.00
2023-01-25T14:09:44.101Z,99151.00
2023-01-25T14:12:24.816Z,99147.00
2023-01-25T14:14:54.140Z,99148.00
2023-01-25T14:17:25.953Z,99147.00
2023-01-25T14:19:57.621Z,99144.00
2023-01-25T14:22:30.437Z,99147.00
2023-01-25T14:25:20.201Z,99147.00
2023-01-25T14:28:00.239Z,99145.00
2023-01-25T14:30:33.294Z,99148.00
2023-01-25T14:33:30.685Z,99150.00
2023-01-25T14:36:24.595Z,99156.00
2023-01-25T14:38:55.342Z,99168.00
2023-01-25T14:41:31.671Z,99156.00
2023-01-25T14:44:12.381Z,99163.00
2023-01-25T14:46:43.419Z,99162.00
2023-01-25T14:49:15.294Z,99160.00
2023-01-25T14:52:00.484Z,99163.00
2023-01-25T14:54:34.347Z,99163.00
2023-01-25T14:57:09.421Z,99169.00
2023-01-25T14:59:45.244Z,99163.00
2023-01-25T15:02:17.199Z,99162.00
2023-01-25T15:05:17.526Z,99161.00
2023-01-25T15:07:59.188Z,99170.00
2023-01-25T15:10:34.468Z,99174.00
2023-01-25T15:13:30.620Z,99175.00
2023-01-25T15:16:06.779Z,99172.00
2023-01-25T15:18:53.846Z,99183.00
2023-01-25T15:21:34.731Z,99177.00
2023-01-25T15:24:13.540Z,99190.00
2023-01-25T15:26:42.839Z,99181.00
2023-01-25T15:29:22.958Z,99177.00
2023-01-25T15:31:53.976Z,99178.00
2023-01-25T15:34:36.121Z,99177.00
2023-01-25T15:37:05.376Z,99175.00
2023-01-25T15:39:35.951Z,99182.00
2023-01-25T15:42:05.432Z,99175.00
2023-01-25T15:44:34.597Z,99181.00
2023-01-25T15:47:03.794Z,99171.00
2023-01-25T15:49:33.672Z,99179.00
2023-01-25T15:52:02.862Z,99184.00
2023-01-25T15:54:32.087Z,99177.00
2023-01-25T15:57:01.958Z,99182.00
2023-01-25T15:59:31.217Z,99185.00
2023-01-25T16:02:00.449Z,99190.00
2023-01-25T16:04:29.711Z,99179.00
2023-01-25T16:06:59.663Z,99189.00
2023-01-25T16:09:31.943Z,99179.00
2023-01-25T16:12:03.428Z,99186.00
2023-01-25T16:14:32.745Z,99183.00
2023-01-25T16:17:06.412Z,99181.00
2023-01-25T16:19:35.921Z,99186.00
2023-01-25T16:22:05.140Z,99175.00
2023-01-25T16:24:34.308Z,99180.00
2023-01-25T16:27:03.805Z,99172.00
2023-01-25T16:29:33.047Z,99173.00
2023-01-25T16:32:02.279Z,99174.00
2023-01-25T16:34:31.591Z,99166.00
2023-01-25T16:37:02.700Z,99170.00
2023-01-25T16:39:35.187Z,99172.00
2023-01-25T16:42:04.358Z,99168.00
2023-01-25T16:44:33.527Z,99163.00
2023-01-25T16:47:03.138Z,99168.00
2023-01-25T16:49:34.418Z,99165.00
2023-01-25T16:52:07.170Z,99167.00
2023-01-25T16:54:36.362Z,99160.00
2023-01-25T16:57:15.058Z,99159.00
2023-01-25T16:59:48.930Z,99154.00
2023-01-25T17:02:18.002Z,99147.00
2023-01-25T17:04:47.214Z,99150.00
2023-01-25T17:07:16.736Z,99160.00
2023-01-25T17:09:45.986Z,99151.00
2023-01-25T17:12:15.414Z,99148.00
2023-01-25T17:14:44.692Z,99147.00
2023-01-25T17:17:13.864Z,99147.00
2023-01-25T17:19:43.411Z,99147.00
2023-01-25T17:22:13.042Z,99147.00
2023-01-25T17:24:42.810Z,99143.00
2023-01-25T17:27:12.663Z,99141.00
2023-01-25T17:29:41.998Z,99139.00
2023-01-25T17:32:11.271Z,99136.00
2023-01-25T17:34:40.679Z,99128.00
2023-01-25T17:37:09.855Z,99130.00
2023-01-25T17:39:39.092Z,99128.00
2023-01-25T17:42:10.041Z,99126.00
2023-01-25T17:44:39.261Z,99126.00
2023-01-25T17:47:08.413Z,99115.00
2023-01-25T17:49:37.627Z,99126.00
2023-01-25T17:52:06.933Z,99123.00
2023-01-25T17:54:37.270Z,99114.00
2023-01-25T17:57:06.481Z,99112.00
2023-01-25T17:59:35.690Z,99117.00
2023-01-25T18:02:05.021Z,99112.00
2023-01-25T18:04:36.095Z,99116.00
2023-01-25T18:07:05.254Z,99105.00
2023-01-25T18:09:36.712Z,99098.00
2023-01-25T18:12:06.441Z,99096.00
2023-01-25T18:14:36.063Z,99089.00
2023-01-25T18:17:05.393Z,99092.00
2023-01-25T18:19:34.971Z,99089.00
2023-01-25T18:22:04.411Z,99090.00
2023-01-25T18:24:38.088Z,99083.00
2023-01-25T18:27:18.716Z,99088.00
2023-01-25T18:30:22.537Z,99084.00
2023-01-25T18:32:51.745Z,99081.00
2023-01-25T18:35:21.160Z,99081.00
2023-01-25T18:37:50.373Z,99076.00
2023-01-25T18:40:20.830Z,99073.00
2023-01-25T18:42:50.717Z,99082.00
2023-01-25T18:45:20.354Z,99076.00
2023-01-25T18:47:49.555Z,99072.00
2023-01-25T18:50:18.961Z,99071.00
2023-01-25T18:52:48.735Z,99069.00
2023-01-25T18:55:18.065Z,99066.00
2023-01-25T18:57:47.273Z,99064.00
2023-01-25T19:00:19.675Z,99065.00
2023-01-25T19:02:48.872Z,99066.00
2023-01-25T19:05:20.933Z,99061.00
2023-01-25T19:07:50.095Z,99060.00
2023-01-25T19:10:20.040Z,99058.00
2023-01-25T19:12:49.322Z,99051.00
2023-01-25T19:15:18.625Z,99054.00
2023-01-25T19:17:47.822Z,99042.00
2023-01-25T19:20:20.546Z,99042.00
2023-01-25T19:22:49.788Z,99042.00
2023-01-25T19:25:19.144Z,99037.00
2023-01-25T19:27:48.447Z,99036.00
2023-01-25T19:30:17.782Z,99039.00
2023-01-25T19:32:46.999Z,99034.00
2023-01-25T19:35:16.272Z,99032.00
2023-01-25T19:37:45.453Z,99027.00
2023-01-25T19:40:15.621Z,99021.00
2023-01-25T19:42:44.854Z,99032.00
2023-01-25T19:45:14.234Z,99022.00
2023-01-25T19:47:43.519Z,99031.00
2023-01-25T19:50:13.468Z,99026.00
2023-01-25T19:52:42.676Z,99015.00
2023-01-25T19:55:12.254Z,99013.00
2023-01-25T19:57:41.555Z,99021.00
2023-01-25T20:00:12.635Z,99019.00
2023-01-25T20:02:42.751Z,99017.00
2023-01-25T20:05:12.342Z,99017.00
2023-01-25T20:07:42.460Z,99013.00
2023-01-25T20:10:12.895Z,99015.00
2023-01-25T20:12:42.119Z,99012.00
2023-01-25T20:15:14.228Z,99011.00
2023-01-25T20:17:44.558Z,99015.00
2023-01-25T20:20:14.866Z,99002.00
2023-01-25T20:22:44.090Z,99003.00
2023-01-25T20:25:13.324Z,99007.00
2023-01-25T20:27:42.511Z,99003.00
2023-01-25T20:30:12.859Z,99009.00
2023-01-25T20:32:42.066Z,98999.00
2023-01-25T20:35:11.795Z,98998.00
2023-01-25T20:37:41.081Z,98999.00
2023-01-25T20:40:11.232Z,98995.00
2023-01-25T20:42:40.538Z,99004.00
2023-01-25T20:45:13.264Z,98994.00
2023-01-25T20:47:42.447Z,98999.00
2023-01-25T20:50:12.675Z,98996.00
2023-01-25T20:52:41.866Z,98996.00
2023-01-25T20:55:11.713Z,98996.00
2023-01-25T20:57:41.968Z,98996.00
2023-01-25T21:00:12.348Z,98988.00
2023-01-25T21:02:41.599Z,98983.00
2023-01-25T21:05:11.525Z,98985.00
2023-01-25T21:07:40.780Z,98987.00
2023-01-25T21:10:11.128Z,98991.00
2023-01-25T21:12:40.844Z,98986.00
2023-01-25T21:15:11.663Z,98984.00
2023-01-25T21:17:41.019Z,98992.00
2023-01-25T21:20:11.956Z,98993.00
2023-01-25T21:22:41.240Z,98997.00
2023-01-25T21:25:13.543Z,98999.00
2023-01-25T21:27:42.765Z,99000.00
2023-01-25T21:30:13.160Z,98995.00
2023-01-25T21:32:44.067Z,98994.00
2023-01-25T21:35:13.231Z,98996.00
2023-01-25T21:37:42.657Z,98994.00
2023-01-25T21:40:13.551Z,98997.00
2023-01-25T21:42:42.815Z,99000.00
2023-01-25T21:45:31.412Z,99000.00
2023-01-25T21:48:01.418Z,99010.00
2023-01-25T21:50:48.702Z,99003.00
2023-01-25T21:53:17.878Z,99007.00
2023-01-25T21:55:47.021Z,99010.00
2023-01-25T21:58:19.661Z,99006.00
2023-01-25T22:00:48.815Z,99006.00
2023-01-25T22:03:18.088Z,99008.00
2023-01-25T22:05:47.280Z,99008.00
2023-01-25T22:08:16.515Z,99012.00
2023-01-25T22:10:45.690Z,99009.00
2023-01-25T22:13:14.853Z,99010.00
2023-01-25T22:15:44.097Z,99013.00
2023-01-25T22:18:13.337Z,99019.00
2023-01-25T22:20:42.445Z,99016.00
2023-01-25T22:23:11.547Z,99016.00
2023-01-25T22:25:40.696Z,99015.00
2023-01-25T22:28:16.320Z,99012.00
2023-01-25T22:30:45.481Z,99025.00
2023-01-25T22:33:14.898Z,99025.00
2023-01-25T22:35:43.971Z,99024.00
2023-01-25T22:38:13.059Z,99028.00
2023-01-25T22:40:42.204Z,99027.00
2023-01-25T22:43:11.303Z,99031.00
2023-01-25T22:45:40.480Z,99039.00
2023-01-25T22:48:10.271Z,99043.00
2023-01-25T22:50:39.353Z,99042.00
2023-01-25T22:53:08.509Z,99039.00
2023-01-25T22:55:37.695Z,99052.00
2023-01-25T22:58:06.923Z,99041.00
2023-01-25T23:00:36.134Z,99057.00
2023-01-25T23:03:06.050Z,99052.00
2023-01-25T23:05:35.243Z,99056.00
2023-01-25T23:08:04.379Z,99054.00
2023-01-25T23:10:33.546Z,99059.00
2023-01-25T23:13:02.664Z,99065.00
2023-01-25T23:15:31.916Z,99056.00
2023-01-25T23:18:20.280Z,99060.00
2023-01-25T23:20:49.471Z,99066.00
2023-01-25T23:23:18.703Z,99064.00
2023-01-25T23:25:48.767Z,99071.00
2023-01-25T23:28:18.055Z,99079.00
2023-01-25T23:30:47.263Z,99074.00
2023-01-25T23:33:16.494Z,99079.00
2023-01-25T23:35:45.687Z,99087.00
2023-01-25T23:38:17.399Z,99082.00
2023-01-25T23:40:47.107Z,99080.00
2023-01-25T23:43:16.279Z,99095.00
2023-01-25T23:45:45.596Z,99088.00
2023-01-25T23:48:14.763Z,99097.00
2023-01-25T23:50:43.919Z,99098.00
2023-01-25T23:53:13.206Z,99100.00
2023-01-25T23:55:42.368Z,99102.00
2023-01-25T23:58:11.523Z,99112.00
